Time;durP1;ratioP1;P1;durP2;ratioP2;P2;SDS_P1;SDS_P2;PMS_P1;PMS_P2;Temp;Humidity;BMP_temperature;BMP_pressure;BME280_temperature;BME280_humidity;BME280_pressure;Samples;Min_cycle;Max_cycle;Signal;HPM_P1;HPM_P2
2022/02/14 00:00:13;;;;;;;4.37;2.63;;;6.40;1.00;;;;;;5054574;28;20174;-79
2022/02/14 00:02:40;;;;;;;5.60;2.73;;;6.40;1.00;;;;;;5036346;28;20177;-79
2022/02/14 00:05:06;;;;;;;5.53;3.50;;;6.40;99.90;;;;;;5054475;28;20917;-80
2022/02/14 00:07:32;;;;;;;5.73;3.40;;;6.40;99.90;;;;;;5054358;28;20463;-79
2022/02/14 00:09:58;;;;;;;4.50;3.07;;;6.40;99.90;;;;;;5036366;28;20178;-79
2022/02/14 00:12:23;;;;;;;6.27;3.20;;;6.50;1.00;;;;;;5054178;28;20795;-79
2022/02/14 00:14:49;;;;;;;5.37;3.73;;;6.50;1.00;;;;;;5054278;28;20408;-79
2022/02/14 00:17:15;;;;;;;4.13;2.80;;;6.50;99.90;;;;;;5053754;28;20181;-79
2022/02/14 00:19:40;;;;;;;4.97;1.90;;;6.60;29.70;;;;;;5054185;28;20182;-79
2022/02/14 00:22:06;;;;;;;4.33;3.33;;;6.60;99.90;;;;;;5053859;28;20243;-79
2022/02/14 00:24:31;;;;;;;3.80;2.40;;;6.70;1.00;;;;;;5053921;28;20533;-79
2022/02/14 00:26:57;;;;;;;5.80;2.70;;;6.90;99.90;;;;;;5048808;28;20220;-79
2022/02/14 00:29:23;;;;;;;12.07;3.40;;;6.90;1.00;;;;;;5034060;28;20179;-79
2022/02/14 00:31:49;;;;;;;8.30;2.30;;;7.00;1.00;;;;;;5015549;28;20228;-79
2022/02/14 00:34:16;;;;;;;5.23;3.20;;;6.90;1.00;;;;;;5016179;28;20421;-80
2022/02/14 00:36:42;;;;;;;5.30;3.20;;;6.90;1.00;;;;;;5032946;28;20475;-80
2022/02/14 00:39:08;;;;;;;3.17;2.17;;;6.90;60.90;;;;;;5016164;28;20429;-80
2022/02/14 00:41:33;;;;;;;6.20;2.60;;;6.80;99.90;;;;;;5033959;28;20815;-80
2022/02/14 00:43:59;;;;;;;3.97;2.07;;;6.80;99.90;;;;;;5033870;28;20518;-80
2022/02/14 00:46:24;;;;;;;4.83;2.30;;;6.90;1.00;;;;;;5015555;28;20627;-80
2022/02/14 00:48:50;;;;;;;9.90;3.93;;;6.70;99.90;;;;;;5034078;28;20880;-80
2022/02/14 00:51:16;;;;;;;4.90;1.43;;;6.70;99.90;;;;;;5050236;28;20639;-80
2022/02/14 00:53:44;;;;;;;8.07;2.70;;;6.90;1.00;;;;;;5053011;28;20292;-80
2022/02/14 00:56:10;;;;;;;3.73;2.73;;;6.80;1.00;;;;;;5053284;28;20184;-80
2022/02/14 00:58:35;;;;;;;3.27;2.20;;;6.80;1.00;;;;;;5053249;28;20421;-79
2022/02/14 01:01:01;;;;;;;7.70;3.03;;;6.70;99.90;;;;;;5052839;28;20706;-79
2022/02/14 01:03:27;;;;;;;5.33;3.07;;;6.60;99.90;;;;;;5035295;28;20179;-79
2022/02/14 01:05:53;;;;;;;3.97;2.50;;;6.70;99.90;;;;;;5052948;28;20216;-79
2022/02/14 01:08:18;;;;;;;3.93;2.37;;;6.80;1.00;;;;;;5053093;28;20912;-80
2022/02/14 01:10:44;;;;;;;4.53;2.37;;;6.70;99.90;;;;;;5035162;28;20166;-79
2022/02/14 01:13:09;;;;;;;5.80;4.00;;;6.60;99.90;;;;;;5052992;28;20227;-79
2022/02/14 01:15:41;;;;;;;5.80;2.90;;;6.70;99.90;;;;;;5052905;28;20208;-79
2022/02/14 01:18:09;;;;;;;5.77;2.10;;;6.70;20.80;;;;;;5052412;28;20206;-79
2022/02/14 01:20:35;;;;;;;3.33;2.30;;;6.80;1.00;;;;;;5052588;28;20940;-79
2022/02/14 01:23:00;;;;;;;5.67;3.20;;;6.80;1.00;;;;;;5052843;28;20405;-79
2022/02/14 01:25:26;;;;;;;2.13;1.10;;;6.80;1.00;;;;;;5052751;28;20223;-79
2022/02/14 01:27:51;;;;;;;3.40;2.10;;;6.70;1.00;;;;;;5052718;28;20182;-79
2022/02/14 01:30:18;;;;;;;3.77;2.03;;;6.80;1.00;;;;;;5052671;28;20629;-79
2022/02/14 01:32:43;;;;;;;4.40;2.70;;;6.80;1.00;;;;;;5051863;28;20234;-79
2022/02/14 01:35:09;;;;;;;4.83;2.67;;;6.80;1.00;;;;;;5034752;28;20432;-79
2022/02/14 01:37:39;;;;;;;3.13;1.97;;;6.80;1.00;;;;;;5052352;28;20638;-79
2022/02/14 01:40:12;;;;;;;6.03;3.13;;;6.90;1.00;;;;;;5052633;28;20491;-79
2022/02/14 01:42:38;;;;;;;3.90;2.27;;;6.90;1.00;;;;;;5035014;28;20426;-79
2022/02/14 01:45:04;;;;;;;4.20;2.80;;;7.00;99.90;;;;;;5052762;28;20416;-79
2022/02/14 01:47:31;;;;;;;4.30;2.47;;;6.80;1.00;;;;;;5052121;28;20492;-79
2022/02/14 01:49:58;;;;;;;4.73;2.77;;;6.80;1.00;;;;;;5052847;28;20432;-79
2022/02/14 01:52:24;;;;;;;3.70;1.10;;;6.80;1.00;;;;;;5052641;28;20500;-79
2022/02/14 01:54:50;;;;;;;4.87;2.90;;;6.90;1.00;;;;;;5052510;28;20449;-79
2022/02/14 01:57:18;;;;;;;2.40;1.70;;;6.90;1.00;;;;;;5052661;28;20897;-79
2022/02/14 01:59:44;;;;;;;5.90;2.17;;;6.90;1.00;;;;;;5052562;28;20500;-79
2022/02/14 02:02:11;;;;;;;3.23;2.93;;;6.90;99.90;;;;;;5052256;28;20401;-80
2022/02/14 02:04:40;;;;;;;4.77;2.50;;;6.80;1.00;;;;;;5034721;28;20886;-80
2022/02/14 02:07:07;;;;;;;4.07;1.97;;;6.90;99.90;;;;;;5052472;28;20990;-78
2022/02/14 02:09:33;;;;;;;8.00;2.87;;;7.10;99.90;;;;;;5052496;28;20441;-79
2022/02/14 02:14:43;;;;;;;3.00;1.53;;;7.10;99.90;;;;;;5052902;28;20463;-79
2022/02/14 02:17:09;;;;;;;4.00;3.17;;;7.00;99.90;;;;;;5034274;28;20432;-79
2022/02/14 02:19:34;;;;;;;5.43;2.10;;;7.00;99.90;;;;;;5052529;28;20653;-80
2022/02/14 02:22:00;;;;;;;2.00;1.70;;;6.90;99.90;;;;;;5052370;28;20229;-79
2022/02/14 02:24:26;;;;;;;3.50;1.70;;;7.00;99.90;;;;;;5052364;28;20221;-79
2022/02/14 02:27:04;;;;;;;4.80;2.70;;;7.00;99.90;;;;;;5052313;28;20424;-79
2022/02/14 02:29:30;;;;;;;6.07;2.53;;;7.00;99.90;;;;;;5052146;28;20550;-80
2022/02/14 02:31:55;;;;;;;4.70;2.20;;;7.00;99.90;;;;;;5051657;28;20405;-79
2022/02/14 02:34:21;;;;;;;3.87;1.77;;;7.10;99.90;;;;;;5052342;28;20435;-79
2022/02/14 02:36:53;;;;;;;5.40;2.33;;;7.30;99.90;;;;;;5034431;28;20178;-79
2022/02/14 02:39:19;;;;;;;3.13;1.37;;;7.10;99.90;;;;;;5052244;28;20420;-79
2022/02/14 02:41:45;;;;;;;5.83;2.10;;;7.00;99.90;;;;;;5052422;28;20504;-79
2022/02/14 02:44:12;;;;;;;4.33;2.40;;;7.00;99.90;;;;;;5052305;28;20223;-78
2022/02/14 02:46:38;;;;;;;7.77;3.13;;;7.20;99.90;;;;;;5051816;28;20709;-79
2022/02/14 02:49:14;;;;;;;4.50;1.90;;;7.00;99.90;;;;;;5052136;28;20429;-78
2022/02/14 02:51:42;;;;;;;4.20;1.40;;;7.00;99.90;;;;;;5052375;28;20416;-78
2022/02/14 02:54:08;;;;;;;3.00;2.10;;;6.90;99.90;;;;;;5052182;28;20998;-79
2022/02/14 02:56:36;;;;;;;3.90;1.53;;;7.00;99.90;;;;;;5052516;28;20896;-78
2022/02/14 02:59:03;;;;;;;2.97;2.10;;;7.00;99.90;;;;;;5055265;28;20420;-78
2022/02/14 03:01:29;;;;;;;3.40;1.73;;;7.10;99.90;;;;;;5055315;28;20444;-79
2022/02/14 03:03:55;;;;;;;3.27;1.73;;;7.00;99.90;;;;;;5055690;28;20925;-79
2022/02/14 03:06:21;;;;;;;4.27;2.47;;;6.90;99.90;;;;;;5055691;28;20646;-79
2022/02/14 03:08:49;;;;;;;4.73;2.13;;;6.80;99.90;;;;;;5021342;28;20175;-80
2022/02/14 03:11:15;;;;;;;3.47;1.83;;;6.80;1.00;;;;;;5037690;28;20416;-79
2022/02/14 03:13:41;;;;;;;6.03;1.80;;;7.00;99.90;;;;;;5055424;28;20891;-79
2022/02/14 03:16:07;;;;;;;2.50;2.27;;;7.00;99.90;;;;;;5055089;28;20429;-79
2022/02/14 03:18:32;;;;;;;6.50;2.30;;;6.90;99.90;;;;;;5055528;28;20300;-79
2022/02/14 03:20:58;;;;;;;5.97;2.40;;;6.80;1.00;;;;;;5055395;28;20428;-79
2022/02/14 03:23:23;;;;;;;3.90;1.37;;;6.80;1.00;;;;;;5055313;28;20583;-79
2022/02/14 03:25:49;;;;;;;4.80;1.40;;;6.90;1.00;;;;;;5037522;28;20254;-79
2022/02/14 03:28:14;;;;;;;11.30;3.03;;;6.80;1.00;;;;;;5055192;28;20510;-79
2022/02/14 03:30:40;;;;;;;3.80;1.97;;;6.90;99.90;;;;;;5054834;28;20177;-80
2022/02/14 03:33:05;;;;;;;5.43;2.40;;;6.90;1.00;;;;;;5020573;28;20236;-80
2022/02/14 03:35:31;;;;;;;4.83;2.57;;;6.90;1.00;;;;;;5037138;28;20201;-81
2022/02/14 03:37:56;;;;;;;3.00;2.03;;;6.80;1.00;;;;;;5055076;28;20245;-80
2022/02/14 03:40:22;;;;;;;4.37;1.50;;;7.00;1.00;;;;;;5055007;28;20630;-80
2022/02/14 03:42:48;;;;;;;4.60;2.67;;;6.90;1.00;;;;;;5054897;28;20173;-79
2022/02/14 03:45:14;;;;;;;3.77;1.80;;;6.70;1.00;;;;;;5054981;28;20408;-80
2022/02/14 03:47:39;;;;;;;6.10;1.90;;;6.80;1.00;;;;;;5054459;28;20170;-79
2022/02/14 03:50:09;;;;;;;4.60;1.90;;;6.70;99.90;;;;;;5054865;28;20231;-79
2022/02/14 03:52:34;;;;;;;5.40;2.10;;;6.60;99.90;;;;;;5054692;28;20198;-80
2022/02/14 03:55:02;;;;;;;4.90;1.80;;;6.60;1.00;;;;;;5054702;28;20436;-79
2022/02/14 03:57:31;;;;;;;5.70;1.40;;;6.60;1.00;;;;;;5054626;28;20171;-79
2022/02/14 03:59:56;;;;;;;4.57;2.10;;;6.60;1.00;;;;;;5054634;28;20978;-79
2022/02/14 04:02:22;;;;;;;3.87;1.30;;;6.70;99.90;;;;;;5054213;28;20430;-79
2022/02/14 04:04:47;;;;;;;3.77;1.87;;;6.70;99.90;;;;;;5054660;28;20170;-79
2022/02/14 04:07:13;;;;;;;4.50;1.73;;;6.60;1.00;;;;;;5054559;28;20631;-79
2022/02/14 04:09:39;;;;;;;3.60;1.17;;;6.60;1.00;;;;;;5036546;28;20756;-79
2022/02/14 04:12:04;;;;;;;5.43;1.80;;;6.60;1.00;;;;;;5054321;28;20516;-79
2022/02/14 04:14:30;;;;;;;3.70;1.90;;;6.60;1.00;;;;;;5054362;28;20529;-79
2022/02/14 04:16:56;;;;;;;3.90;2.30;;;6.60;1.60;;;;;;5053847;28;20263;-79
2022/02/14 04:19:21;;;;;;;4.33;2.50;;;6.60;45.50;;;;;;5054274;28;20202;-80
2022/02/14 04:21:47;;;;;;;3.80;1.30;;;6.60;1.00;;;;;;5036265;28;20689;-80
2022/02/14 04:24:12;;;;;;;2.60;1.37;;;6.60;1.00;;;;;;5054203;28;20167;-79
2022/02/14 04:26:37;;;;;;;4.30;2.30;;;6.70;1.00;;;;;;5054119;28;20206;-79
2022/02/14 04:29:03;;;;;;;3.67;1.93;;;6.70;1.00;;;;;;5054029;28;20179;-80
2022/02/14 04:31:31;;;;;;;3.43;2.20;;;6.70;1.00;;;;;;5053525;28;20170;-79
2022/02/14 04:34:00;;;;;;;4.63;2.60;;;6.80;99.90;;;;;;5053659;28;20224;-80
2022/02/14 04:36:25;;;;;;;3.63;2.07;;;6.80;1.00;;;;;;5053879;28;20486;-80
2022/02/14 04:38:51;;;;;;;3.50;1.90;;;6.80;99.90;;;;;;5035961;28;20412;-79
2022/02/14 04:41:16;;;;;;;2.73;1.63;;;6.80;99.90;;;;;;5053780;28;20211;-79
2022/02/14 04:43:42;;;;;;;6.13;2.10;;;6.80;99.90;;;;;;5035954;28;20175;-79
2022/02/14 04:46:07;;;;;;;4.30;1.90;;;6.80;99.90;;;;;;5053421;28;20563;-79
2022/02/14 04:48:36;;;;;;;4.80;1.77;;;6.90;99.90;;;;;;5053392;28;20180;-79
2022/02/14 04:51:01;;;;;;;4.40;2.50;;;6.90;99.90;;;;;;5053637;28;20324;-79
2022/02/14 04:53:27;;;;;;;3.97;2.20;;;6.90;99.90;;;;;;5053432;28;20551;-80
2022/02/14 04:55:52;;;;;;;2.73;1.33;;;6.90;99.90;;;;;;5019137;28;20177;-80
2022/02/14 04:58:18;;;;;;;3.20;2.07;;;6.90;91.30;;;;;;5053377;28;20169;-79
2022/02/14 05:00:43;;;;;;;5.20;2.60;;;6.90;99.90;;;;;;5053083;28;20535;-79
2022/02/14 05:03:09;;;;;;;3.03;1.60;;;7.00;1.00;;;;;;5053479;28;20170;-79
2022/02/14 05:05:34;;;;;;;2.43;1.63;;;7.00;1.00;;;;;;5053390;28;20172;-79
2022/02/14 05:08:00;;;;;;;5.47;2.27;;;7.00;1.00;;;;;;5053325;28;20591;-80
2022/02/14 05:10:26;;;;;;;3.87;1.40;;;7.00;1.00;;;;;;5053246;28;20202;-79
2022/02/14 05:12:51;;;;;;;2.90;1.60;;;7.00;1.00;;;;;;5035183;28;20214;-79
2022/02/14 05:15:17;;;;;;;4.40;1.97;;;6.90;99.90;;;;;;5052776;28;20424;-79
2022/02/14 05:17:42;;;;;;;4.40;2.17;;;7.00;1.00;;;;;;5035097;28;20174;-79
2022/02/14 05:20:08;;;;;;;3.87;2.10;;;7.00;25.00;;;;;;5052948;28;20664;-79
2022/02/14 05:22:37;;;;;;;2.50;2.20;;;7.00;1.00;;;;;;5052610;28;20206;-79
2022/02/14 05:25:03;;;;;;;3.87;1.23;;;7.10;1.00;;;;;;5052909;28;20410;-79
2022/02/14 05:27:28;;;;;;;6.63;1.93;;;7.00;52.00;;;;;;5052826;28;20409;-79
2022/02/14 05:30:00;;;;;;;4.50;1.73;;;7.00;96.00;;;;;;5052846;28;20478;-79
2022/02/14 05:32:25;;;;;;;3.73;1.50;;;6.90;99.90;;;;;;5052326;28;20231;-79
2022/02/14 05:34:51;;;;;;;4.53;1.87;;;7.00;99.90;;;;;;5052914;28;20424;-79
2022/02/14 05:37:16;;;;;;;3.00;2.07;;;7.00;99.90;;;;;;5034952;28;20175;-79
2022/02/14 05:39:44;;;;;;;3.93;1.80;;;7.00;99.90;;;;;;5052867;28;20246;-79
2022/02/14 05:42:10;;;;;;;3.63;1.93;;;7.00;99.90;;;;;;5052714;28;20181;-80
2022/02/14 05:44:36;;;;;;;8.10;2.37;;;7.00;99.90;;;;;;5052679;28;20409;-79
2022/02/14 05:47:02;;;;;;;3.07;1.20;;;7.10;99.90;;;;;;5052250;28;20529;-79
2022/02/14 05:49:27;;;;;;;4.97;2.50;;;7.00;99.90;;;;;;5052680;28;20253;-79
2022/02/14 05:51:53;;;;;;;3.90;1.90;;;7.00;99.90;;;;;;5052636;28;20175;-79
2022/02/14 05:54:25;;;;;;;3.33;1.70;;;7.10;99.90;;;;;;5052540;28;20215;-79
2022/02/14 05:56:50;;;;;;;3.63;2.00;;;7.20;1.00;;;;;;5052651;28;20467;-79
2022/02/14 05:59:16;;;;;;;1.90;1.23;;;7.10;1.00;;;;;;5052723;28;20420;-78
2022/02/14 06:01:41;;;;;;;4.70;1.37;;;7.20;1.00;;;;;;5052257;28;20258;-79
2022/02/14 06:04:07;;;;;;;5.23;2.13;;;7.10;19.80;;;;;;5052536;28;20202;-78
2022/02/14 06:06:33;;;;;;;4.77;1.60;;;7.10;99.90;;;;;;5052477;28;20258;-79
2022/02/14 06:08:58;;;;;;;4.33;2.27;;;7.20;50.20;;;;;;5052458;28;20424;-79
2022/02/14 06:11:24;;;;;;;1.90;1.37;;;7.10;99.90;;;;;;5034640;28;20165;-79
2022/02/14 06:13:50;;;;;;;5.27;1.47;;;7.10;99.90;;;;;;5052714;28;20202;-78
2022/02/14 06:16:15;;;;;;;3.10;1.80;;;7.20;99.90;;;;;;5034357;28;20174;-79
2022/02/14 06:18:41;;;;;;;3.23;2.00;;;7.20;83.70;;;;;;5052431;28;20167;-78
2022/02/14 06:21:06;;;;;;;8.93;2.63;;;7.20;60.00;;;;;;5052337;28;20524;-79
2022/02/14 06:23:32;;;;;;;3.40;1.60;;;7.10;30.50;;;;;;5034519;28;20170;-79
2022/02/14 06:26:01;;;;;;;6.70;3.17;;;7.20;1.00;;;;;;5052395;28;20529;-79
2022/02/14 06:28:26;;;;;;;2.90;1.70;;;7.10;8.50;;;;;;5051686;28;20889;-79
2022/02/14 06:30:52;;;;;;;4.53;1.97;;;7.10;10.60;;;;;;5050652;28;20425;-79
2022/02/14 06:33:17;;;;;;;2.23;2.07;;;7.10;1.00;;;;;;5050628;28;20241;-79
2022/02/14 06:35:43;;;;;;;5.97;2.27;;;7.10;27.50;;;;;;5053761;28;20216;-79
2022/02/14 06:38:09;;;;;;;3.77;1.60;;;7.10;17.10;;;;;;5056239;28;20199;-78
2022/02/14 06:40:34;;;;;;;4.00;1.97;;;7.10;99.90;;;;;;5038316;28;20197;-79
2022/02/14 06:43:00;;;;;;;3.07;1.87;;;7.20;1.00;;;;;;5055932;28;20171;-79
2022/02/14 06:45:25;;;;;;;6.87;1.73;;;7.10;1.00;;;;;;5055334;28;20179;-79
2022/02/14 06:47:51;;;;;;;3.60;1.50;;;7.20;1.00;;;;;;5055650;28;20177;-79
2022/02/14 06:50:17;;;;;;;3.00;1.30;;;7.20;1.00;;;;;;5055517;28;20649;-79
2022/02/14 06:52:44;;;;;;;6.17;1.40;;;7.20;1.00;;;;;;5055602;28;20319;-79
2022/02/14 06:55:15;;;;;;;3.53;1.47;;;7.20;1.00;;;;;;5037822;28;20999;-79
2022/02/14 06:57:44;;;;;;;6.50;1.80;;;7.10;1.00;;;;;;5055748;28;20451;-80
2022/02/14 07:00:12;;;;;;;1.60;1.00;;;7.10;18.00;;;;;;5054997;28;20410;-79
2022/02/14 07:02:38;;;;;;;3.00;1.40;;;7.00;99.90;;;;;;5055409;28;20405;-79
2022/02/14 07:05:04;;;;;;;6.27;2.00;;;7.10;37.00;;;;;;5055725;28;20421;-79
2022/02/14 07:07:31;;;;;;;3.07;1.47;;;7.10;1.00;;;;;;5055688;28;20192;-80
2022/02/14 07:09:56;;;;;;;2.30;1.27;;;7.20;4.70;;;;;;5037295;28;20409;-78
2022/02/14 07:12:22;;;;;;;5.63;1.43;;;7.20;1.00;;;;;;5055529;28;20970;-79
2022/02/14 07:14:47;;;;;;;3.40;1.50;;;7.20;1.00;;;;;;5055398;28;20204;-78
2022/02/14 07:17:13;;;;;;;8.13;1.30;;;7.30;1.00;;;;;;5055149;28;20166;-79
2022/02/14 07:19:39;;;;;;;7.93;1.60;;;7.20;1.00;;;;;;5055331;28;20197;-79
2022/02/14 07:22:05;;;;;;;3.13;2.23;;;7.20;1.00;;;;;;5055306;28;20229;-79
2022/02/14 07:24:31;;;;;;;3.87;1.07;;;7.30;1.00;;;;;;5037384;28;20294;-79
2022/02/14 07:26:59;;;;;;;3.60;1.77;;;7.40;1.00;;;;;;5055199;28;21026;-79
2022/02/14 07:29:25;;;;;;;2.50;1.20;;;7.50;99.90;;;;;;5055231;28;20232;-80
2022/02/14 07:31:50;;;;;;;4.40;1.43;;;7.60;99.90;;;;;;5054594;28;20771;-80
2022/02/14 07:34:16;;;;;;;3.00;1.10;;;7.60;99.90;;;;;;5037241;28;20217;-80
2022/02/14 07:36:41;;;;;;;2.10;1.90;;;7.70;99.90;;;;;;5055062;28;20260;-80
2022/02/14 07:39:07;;;;;;;3.80;2.47;;;7.70;99.90;;;;;;5055062;28;20177;-82
2022/02/14 07:41:34;;;;;;;2.10;1.07;;;7.70;99.90;;;;;;5055035;28;20163;-81
2022/02/14 07:44:00;;;;;;;2.20;1.00;;;7.80;99.90;;;;;;5055113;28;20628;-80
2022/02/14 07:46:29;;;;;;;3.63;1.77;;;7.90;99.90;;;;;;5054091;28;20779;-79
2022/02/14 07:48:57;;;;;;;2.57;1.70;;;7.90;99.90;;;;;;5054705;28;20418;-79
2022/02/14 07:51:22;;;;;;;4.50;1.40;;;8.00;99.90;;;;;;5036754;28;20421;-79
2022/02/14 07:53:48;;;;;;;3.73;2.27;;;8.20;99.90;;;;;;5054677;28;20487;-79
2022/02/14 07:56:14;;;;;;;1.70;1.27;;;8.20;99.90;;;;;;5036739;28;20278;-80
2022/02/14 07:58:40;;;;;;;2.83;1.27;;;8.30;99.90;;;;;;5054661;28;20184;-80
2022/02/14 08:01:06;;;;;;;3.80;1.93;;;8.30;97.70;;;;;;5053919;28;20502;-80
2022/02/14 08:03:32;;;;;;;8.67;2.40;;;8.40;56.50;;;;;;5054510;28;20561;-80
2022/02/14 08:05:58;;;;;;;5.23;2.00;;;8.50;28.80;;;;;;5054613;28;20218;-79
2022/02/14 08:08:23;;;;;;;2.97;1.10;;;8.60;23.60;;;;;;5054535;28;20517;-79
2022/02/14 08:10:49;;;;;;;3.03;1.43;;;8.70;1.00;;;;;;5036716;28;20411;-80
2022/02/14 08:13:15;;;;;;;3.00;1.30;;;8.70;1.00;;;;;;5054288;28;20243;-80
2022/02/14 08:15:40;;;;;;;8.37;2.20;;;8.90;1.00;;;;;;5036150;28;20468;-80
2022/02/14 08:18:09;;;;;;;2.93;1.17;;;9.10;1.00;;;;;;5054283;28;20165;-80
2022/02/14 08:20:35;;;;;;;2.93;1.07;;;9.30;1.00;;;;;;5054317;28;20653;-80
2022/02/14 08:23:02;;;;;;;3.27;1.70;;;9.50;1.00;;;;;;5054323;28;20838;-80
2022/02/14 08:25:28;;;;;;;3.70;2.33;;;9.30;1.00;;;;;;5054190;28;20510;-80
2022/02/14 08:27:53;;;;;;;3.40;1.57;;;9.30;1.00;;;;;;5036286;28;20451;-80
2022/02/14 08:30:19;;;;;;;3.20;1.13;;;9.60;29.90;;;;;;5053755;28;20191;-80
2022/02/14 08:32:44;;;;;;;2.70;1.50;;;9.60;21.90;;;;;;5053672;28;20232;-81
2022/02/14 08:35:11;;;;;;;4.83;1.73;;;9.60;1.00;;;;;;5054135;28;20184;-80
2022/02/14 08:37:36;;;;;;;2.30;1.30;;;9.50;23.30;;;;;;5053959;28;20181;-80
2022/02/14 08:40:03;;;;;;;4.07;1.00;;;9.60;26.40;;;;;;5053914;28;20439;-80
2022/02/14 08:42:28;;;;;;;4.60;1.73;;;9.90;33.50;;;;;;5053921;28;20188;-80
2022/02/14 08:44:54;;;;;;;4.27;1.87;;;9.80;14.40;;;;;;5053547;28;20918;-80
2022/02/14 08:47:19;;;;;;;1.30;1.20;;;9.90;20.90;;;;;;5053611;28;20166;-80
2022/02/14 08:49:46;;;;;;;2.53;1.17;;;9.90;13.80;;;;;;5053808;28;20223;-81
2022/02/14 08:52:12;;;;;;;3.53;1.80;;;9.90;15.40;;;;;;5054054;28;20190;-80
2022/02/14 08:54:40;;;;;;;5.63;1.93;;;9.90;14.60;;;;;;5061490;28;20428;-81
2022/02/14 08:57:06;;;;;;;3.17;1.30;;;9.80;30.00;;;;;;5054320;28;20170;-81
2022/02/14 08:59:32;;;;;;;3.80;1.33;;;9.70;29.50;;;;;;5053396;28;20420;-81
2022/02/14 09:02:00;;;;;;;3.50;1.30;;;9.80;29.80;;;;;;5053221;28;20416;-81
2022/02/14 09:04:26;;;;;;;5.13;1.17;;;9.90;29.00;;;;;;5053398;28;20182;-81
2022/02/14 09:06:51;;;;;;;2.70;1.17;;;9.90;44.70;;;;;;5035472;28;20430;-81
2022/02/14 09:09:20;;;;;;;2.67;1.27;;;9.90;49.80;;;;;;5053326;28;20179;-81
2022/02/14 09:11:47;;;;;;;2.83;1.17;;;9.90;50.80;;;;;;5053377;28;20630;-80
2022/02/14 09:14:12;;;;;;;3.40;0.80;;;10.10;33.50;;;;;;5053069;28;20466;-79
2022/02/14 09:16:42;;;;;;;3.40;1.00;;;10.20;37.70;;;;;;5052878;28;20427;-81
2022/02/14 09:19:08;;;;;;;2.33;1.10;;;10.10;30.90;;;;;;5053205;28;20202;-82
2022/02/14 09:21:34;;;;;;;1.77;0.70;;;10.20;31.10;;;;;;5053188;28;20458;-82
2022/02/14 09:23:59;;;;;;;2.97;1.30;;;10.40;25.80;;;;;;5053122;28;20608;-82
2022/02/14 09:26:25;;;;;;;2.77;1.00;;;10.70;1.00;;;;;;5053023;28;20197;-82
2022/02/14 09:28:51;;;;;;;5.30;1.07;;;10.90;1.00;;;;;;5052895;28;20249;-80
2022/02/14 09:31:16;;;;;;;2.77;1.20;;;12.90;1.00;;;;;;5052583;28;20167;-80
2022/02/14 09:33:42;;;;;;;4.00;1.17;;;14.30;1.00;;;;;;5052621;28;20320;-80
2022/02/14 09:36:07;;;;;;;3.70;0.90;;;14.60;99.90;;;;;;5052840;28;20172;-81
2022/02/14 09:38:36;;;;;;;4.97;1.70;;;15.10;99.90;;;;;;5052886;28;20174;-81
2022/02/14 09:41:05;;;;;;;3.03;2.10;;;15.90;99.90;;;;;;5052269;28;20170;-81
2022/02/14 09:43:32;;;;;;;5.27;1.43;;;16.40;99.90;;;;;;5052612;28;21023;-85
2022/02/14 09:45:58;;;;;;;6.33;1.27;;;15.60;99.90;;;;;;5034508;28;20782;-81
2022/02/14 09:48:27;;;;;;;4.37;2.27;;;16.20;99.90;;;;;;5052695;28;20414;-81
2022/02/14 09:50:52;;;;;;;2.77;1.37;;;17.20;99.90;;;;;;5052600;28;20264;-80
2022/02/14 09:53:18;;;;;;;2.93;1.80;;;16.70;99.90;;;;;;5034614;28;20517;-81
2022/02/14 09:55:45;;;;;;;2.63;2.07;;;16.10;99.90;;;;;;5052571;28;20175;-81
2022/02/14 09:58:11;;;;;;;4.10;1.40;;;14.90;99.90;;;;;;5052483;28;20257;-81
2022/02/14 10:00:37;;;;;;;2.07;1.30;;;13.90;99.90;;;;;;5052254;28;20453;-81
2022/02/14 10:03:15;;;;;;;3.80;1.37;;;13.60;99.90;;;;;;5052559;28;20248;-81
2022/02/14 10:05:43;;;;;;;4.73;2.20;;;15.40;99.90;;;;;;5052401;28;20170;-80
2022/02/14 10:08:09;;;;;;;2.20;1.47;;;17.50;99.90;;;;;;5034529;28;20429;-81
2022/02/14 10:10:36;;;;;;;5.07;1.63;;;17.70;99.90;;;;;;5056418;28;20916;-81
2022/02/14 10:13:02;;;;;;;3.53;1.10;;;;;;;;;;5056542;28;20181;-82
2022/02/14 10:15:28;;;;;;;2.83;0.60;;;;;;;;;;5056106;28;20892;-82
2022/02/14 10:17:59;;;;;;;1.57;0.73;;;;;;;;;;5056304;28;20413;-82
2022/02/14 10:20:25;;;;;;;2.30;0.77;;;18.40;99.90;;;;;;5056620;28;20584;-80
2022/02/14 10:23:03;;;;;;;6.33;1.37;;;17.70;99.90;;;;;;5038431;28;20825;-80
2022/02/14 10:25:37;;;;;;;4.30;1.37;;;18.60;99.90;;;;;;5038430;28;20804;-82
2022/02/14 10:28:16;;;;;;;3.23;1.33;;;18.60;99.90;;;;;;5056325;28;20414;-81
2022/02/14 10:31:03;;;;;;;3.40;1.20;;;18.00;99.90;;;;;;5056238;28;20428;-81
2022/02/14 10:33:47;;;;;;;1.57;1.03;;;18.70;99.90;;;;;;5056040;28;20912;-81
2022/02/14 10:36:13;;;;;;;2.43;0.70;;;17.70;99.90;;;;;;5056195;28;20426;-82
2022/02/14 10:38:38;;;;;;;2.40;1.17;;;17.90;99.90;;;;;;5056251;28;20426;-81
2022/02/14 10:41:12;;;;;;;2.10;1.17;;;18.40;99.90;;;;;;5038253;28;20601;-82
2022/02/14 10:43:37;;;;;;;3.57;1.43;;;19.00;99.90;;;;;;5056101;28;20216;-80
2022/02/14 10:46:03;;;;;;;1.50;1.03;;;19.00;99.90;;;;;;5037755;28;20430;-81
2022/02/14 10:48:34;;;;;;;3.63;1.90;;;18.00;99.90;;;;;;5056098;28;20311;-82
2022/02/14 10:51:00;;;;;;;1.90;1.23;;;18.20;99.90;;;;;;5055976;28;20263;-82
2022/02/14 10:53:25;;;;;;;2.20;1.33;;;18.00;99.90;;;;;;5055967;28;20540;-82
2022/02/14 10:55:56;;;;;;;2.27;1.30;;;18.80;99.90;;;;;;5055784;28;20415;-82
2022/02/14 10:58:27;;;;;;;3.77;1.03;;;18.60;99.90;;;;;;5055874;28;20544;-82
2022/02/14 11:00:52;;;;;;;3.10;1.17;;;19.40;99.90;;;;;;5055519;28;20503;-82
2022/02/14 11:03:18;;;;;;;2.87;0.90;;;19.60;99.90;;;;;;5055603;28;20914;-82
2022/02/14 11:05:44;;;;;;;2.60;1.03;;;20.80;99.90;;;;;;5055215;28;20169;-82
2022/02/14 11:08:10;;;;;;;2.93;1.27;;;;;;;;;;5055529;28;20498;-82
2022/02/14 11:10:44;;;;;;;2.77;0.80;;;18.10;99.90;;;;;;5055714;28;20169;-82
2022/02/14 11:13:10;;;;;;;1.90;1.20;;;;;;;;;;5037952;28;20438;-80
2022/02/14 11:15:37;;;;;;;5.73;1.87;;;17.00;1.00;;;;;;5055151;28;20411;-82
2022/02/14 11:18:13;;;;;;;4.10;1.20;;;17.90;99.90;;;;;;5055410;28;20783;-82
2022/02/14 11:20:40;;;;;;;1.90;0.97;;;;;;;;;;5036916;28;20780;-81
2022/02/14 11:23:08;;;;;;;2.50;1.30;;;18.90;99.90;;;;;;5055723;28;20475;-81
2022/02/14 11:25:49;;;;;;;1.73;1.00;;;16.80;99.90;;;;;;5055429;28;20473;-81
2022/02/14 11:28:21;;;;;;;2.00;1.10;;;17.80;99.90;;;;;;5055675;28;20461;-81
2022/02/14 11:31:08;;;;;;;2.90;1.43;;;18.20;99.90;;;;;;5054938;28;20451;-81
2022/02/14 11:33:34;;;;;;;2.30;1.30;;;17.30;99.90;;;;;;5044550;28;20559;-82
2022/02/14 11:36:06;;;;;;;1.30;0.80;;;17.00;99.90;;;;;;5055392;28;20491;-82
2022/02/14 11:39:05;;;;;;;1.57;1.07;;;15.40;99.90;;;;;;5055253;28;20469;-81
2022/02/14 11:41:44;;;;;;;2.50;0.90;;;15.00;99.90;;;;;;5021931;28;20780;-81
2022/02/14 11:44:21;;;;;;;0.97;0.60;;;14.60;99.90;;;;;;5036869;28;20469;-81
2022/02/14 11:46:47;;;;;;;2.30;0.90;;;14.60;99.90;;;;;;5054975;28;20497;-81
2022/02/14 11:49:16;;;;;;;1.53;1.07;;;14.40;99.90;;;;;;5054883;28;20982;-81
2022/02/14 11:52:02;;;;;;;1.40;1.23;;;14.40;99.90;;;;;;5054947;28;20176;-82
2022/02/14 11:54:34;;;;;;;3.60;0.90;;;14.30;99.90;;;;;;5054838;28;20455;-80
2022/02/14 11:57:33;;;;;;;1.80;0.83;;;14.30;99.90;;;;;;5054823;28;20411;-81
2022/02/14 12:00:27;;;;;;;2.37;1.17;;;14.00;99.90;;;;;;5054586;28;20414;-81
2022/02/14 12:03:15;;;;;;;1.97;0.70;;;14.40;99.90;;;;;;5054689;28;20935;-81
2022/02/14 12:05:45;;;;;;;5.63;0.93;;;14.80;99.90;;;;;;5054538;28;20429;-82
2022/02/14 12:08:12;;;;;;;2.93;0.80;;;16.00;99.90;;;;;;5054639;28;20421;-80
2022/02/14 12:10:49;;;;;;;3.60;0.70;;;15.20;99.90;;;;;;5054307;28;20403;-81
2022/02/14 12:13:17;;;;;;;2.40;0.50;;;14.70;99.90;;;;;;5054428;28;20418;-82
2022/02/14 12:21:09;;;;;;;1.13;0.73;;;14.50;99.90;;;;;;5054289;28;20925;-81
2022/02/14 12:23:47;;;;;;;1.67;1.00;;;14.40;99.90;;;;;;5054236;28;20689;-81
2022/02/14 12:26:14;;;;;;;2.70;0.40;;;;;;;;;;5036459;28;20427;-81
2022/02/14 12:28:41;;;;;;;0.93;0.37;;;16.20;99.90;;;;;;5054043;28;20422;-81
2022/02/14 12:31:07;;;;;;;1.97;0.70;;;15.20;99.90;;;;;;5053849;28;20415;-81
2022/02/14 12:33:34;;;;;;;2.40;1.30;;;14.90;99.90;;;;;;5052888;28;20842;-81
2022/02/14 12:36:02;;;;;;;2.27;1.10;;;14.40;99.90;;;;;;5054000;28;20419;-81
2022/02/14 12:38:31;;;;;;;2.13;0.63;;;14.20;99.90;;;;;;5053996;28;20424;-81
2022/02/14 12:41:12;;;;;;;2.20;0.50;;;14.10;99.90;;;;;;5053931;28;20914;-81
2022/02/14 12:43:47;;;;;;;1.33;0.83;;;14.00;99.90;;;;;;5053829;28;20568;-82
2022/02/14 12:46:14;;;;;;;2.10;0.80;;;14.20;99.90;;;;;;5053441;28;20492;-81
2022/02/14 12:48:49;;;;;;;2.57;1.30;;;14.20;99.90;;;;;;5053732;28;20777;-81
2022/02/14 12:51:34;;;;;;;4.40;0.87;;;;;;;;;;5053654;28;20461;-81
2022/02/14 12:54:01;;;;;;;1.87;1.20;;;13.90;99.90;;;;;;5053620;28;20405;-80
2022/02/14 12:56:28;;;;;;;2.00;1.30;;;13.80;99.90;;;;;;5053647;28;20416;-81
2022/02/14 12:58:55;;;;;;;6.37;1.13;;;13.70;99.90;;;;;;5053161;28;20408;-80
2022/02/14 13:01:22;;;;;;;1.70;0.53;;;13.80;99.90;;;;;;5053405;28;20415;-80
2022/02/14 13:04:03;;;;;;;1.77;0.80;;;13.70;99.90;;;;;;5053457;28;20559;-80
2022/02/14 13:06:42;;;;;;;1.40;1.10;;;13.60;99.90;;;;;;5053478;28;20426;-81
2022/02/14 13:09:24;;;;;;;2.17;1.60;;;13.40;99.90;;;;;;5052258;28;20931;-80